Airfield :
LOGIN :

Register | Disclaimer

   EN    FR    IT 

 










Legend :    VFR   Marginal VFR   IFR   Intensive IFR   Very Intensive IFR
Visi :
Ceiling :
>= 8 km
>= 3000ft
5 to 8 km
1000 to 3000 ft
1500m to 5 km
500 to 1000 ft
800 to 1500m
200 to 500 ft
< 800m
< 200 ft
Symbols :   Thunderstorms  Fog  Heavy snow  Heavy precipitations  Wind > 20 kt
SIGMETs :     Misc.  Thunderstorms  Icing  Turbulence  Mountain Waves  Volcanic Ashes







- Airport Elevation : 405 ft
- IATA code : ODH


EGVO - RAF Odiham

CURRENT METAR :
  • 122250Z 12013KT 9999 FEW033 02/M01 Q1017 BLU

EXPIRED METARs :
  • 122150Z 12014KT 9999 FEW035 02/M02 Q1017 BLU NOSIG
  • 122050Z 12010KT 9999 FEW034 02/M02 Q1018 BLU NOSIG

TAF TAF EGVO
Valid from the 12 at 21:00 until the 13 at 09:00 UTC


121942Z 1221/1309 11010KT 9999 FEW030
PROB30
TEMPO 1300/1309 SCT020
No reported NOTAMs for that airfield.
1 SIGMET reported for the London FIR (EGTT) :
 
Severe turbulence
EGTT SIGMET 01 VALID 122330/130330 EGRR
EGTT LONDON FIR SEV TURB FCST W OF LINE N5500 W00400 - N4923 W00510 SFC/FL060 STNR NC=



MET'MAP, your aeronautical weather chart ! - Copyright ORBIFLY December 2007 - Disclaimer

ORBIFLY MET'MAP TEAM :

Programming & Development : Alexandra Zaïnal
Concept & Development : Baudouin d'Aumeries
Co-Development & Prog : Marc-Olivier Méhu
Technical & hardware support : Manuel Goepfert

Contact : metmap@orbifly.com




SOURCES & CREDITS :

   NOAA